Time;durP1;ratioP1;P1;durP2;ratioP2;P2;SDS_P1;SDS_P2;PMS_P1;PMS_P2;Temp;Humidity;BMP_temperature;BMP_pressure;BME280_temperature;BME280_humidity;BME280_pressure;Samples;Min_cycle;Max_cycle;Signal;HPM_P1;HPM_P2
2021/09/19 00:00:58;;;;;;;3.08;2.80;;;15.80;99.90;;;;;;2063674;28;20023;-71
2021/09/19 00:01:58;;;;;;;4.35;2.58;;;15.80;99.90;;;;;;2063400;28;20348;-71
2021/09/19 00:02:59;;;;;;;3.28;3.05;;;15.80;99.90;;;;;;2063736;28;20493;-71
2021/09/19 00:04:00;;;;;;;4.70;2.97;;;15.80;99.90;;;;;;2063656;28;20037;-71
2021/09/19 00:05:00;;;;;;;3.38;2.95;;;15.80;99.90;;;;;;2067358;28;20604;-71
2021/09/19 00:06:01;;;;;;;4.28;3.03;;;15.80;99.90;;;;;;2071952;28;20034;-71
2021/09/19 00:07:02;;;;;;;2.80;2.20;;;15.80;99.90;;;;;;2068184;28;20538;-71
2021/09/19 00:08:03;;;;;;;3.05;2.65;;;15.70;99.90;;;;;;2071148;28;20050;-71
2021/09/19 00:09:03;;;;;;;4.68;3.15;;;15.70;99.90;;;;;;2064019;28;20034;-71
2021/09/19 00:10:06;;;;;;;2.90;2.70;;;15.70;99.90;;;;;;2068173;28;20518;-71
2021/09/19 00:11:07;;;;;;;3.35;3.05;;;15.70;99.90;;;;;;2064109;28;20105;-71
2021/09/19 00:12:07;;;;;;;3.30;3.00;;;15.70;99.90;;;;;;2064429;28;20030;-71
2021/09/19 00:13:08;;;;;;;3.47;2.72;;;15.70;99.90;;;;;;2064257;28;20514;-71
2021/09/19 00:14:09;;;;;;;2.92;2.72;;;15.70;99.90;;;;;;2071600;28;20029;-71
2021/09/19 00:15:13;;;;;;;4.32;2.38;;;15.70;99.90;;;;;;2069946;28;20100;-71
2021/09/19 00:16:14;;;;;;;3.33;2.90;;;15.60;99.90;;;;;;2070954;28;20025;-71
2021/09/19 00:17:17;;;;;;;2.80;2.60;;;15.60;99.90;;;;;;2062861;28;20109;-71
2021/09/19 00:18:17;;;;;;;2.90;2.70;;;15.60;99.90;;;;;;2062409;28;20481;-71
2021/09/19 00:19:19;;;;;;;2.90;2.70;;;15.60;99.90;;;;;;2063910;28;20382;-71
2021/09/19 00:20:21;;;;;;;2.97;2.75;;;15.60;99.90;;;;;;2070797;28;20079;-71
2021/09/19 00:21:21;;;;;;;2.63;2.42;;;15.60;99.90;;;;;;2071056;28;20030;-71
2021/09/19 00:22:22;;;;;;;3.45;2.78;;;15.60;99.90;;;;;;2063475;28;20037;-71
2021/09/19 00:23:22;;;;;;;3.00;2.70;;;15.60;99.90;;;;;;2063701;28;20467;-72
2021/09/19 00:24:23;;;;;;;2.97;2.72;;;15.50;99.90;;;;;;2063349;28;20033;-71
2021/09/19 00:25:24;;;;;;;3.55;2.22;;;15.50;99.90;;;;;;2069942;28;20372;-71
2021/09/19 00:26:25;;;;;;;5.47;3.05;;;15.50;99.90;;;;;;2071160;28;20359;-71
2021/09/19 00:27:25;;;;;;;3.28;2.97;;;15.50;99.90;;;;;;2070626;28;20105;-71
2021/09/19 00:28:26;;;;;;;3.45;2.97;;;15.50;99.90;;;;;;2071114;28;20034;-71
2021/09/19 00:29:26;;;;;;;3.90;3.20;;;15.50;99.90;;;;;;2068883;28;20030;-71
2021/09/19 00:30:27;;;;;;;3.45;3.15;;;15.50;99.90;;;;;;2063855;28;20029;-71
2021/09/19 00:31:27;;;;;;;3.50;3.20;;;15.40;99.90;;;;;;2063321;28;20026;-71
2021/09/19 00:32:28;;;;;;;3.15;2.95;;;15.40;99.90;;;;;;2063447;28;20100;-71
2021/09/19 00:33:29;;;;;;;4.07;3.70;;;15.40;99.90;;;;;;2063543;28;20486;-72
2021/09/19 00:34:29;;;;;;;3.78;3.50;;;15.40;99.90;;;;;;2063415;28;20084;-71
2021/09/19 00:35:30;;;;;;;3.80;3.40;;;15.40;99.90;;;;;;2070015;28;20033;-71
2021/09/19 00:36:31;;;;;;;3.60;2.70;;;15.40;99.90;;;;;;2070739;28;20041;-71
2021/09/19 00:37:31;;;;;;;3.50;3.20;;;15.40;99.90;;;;;;2068701;28;20108;-71
2021/09/19 00:38:32;;;;;;;3.50;3.20;;;15.40;99.90;;;;;;2063406;28;20037;-71
2021/09/19 00:39:33;;;;;;;3.22;3.03;;;15.40;99.90;;;;;;2063355;28;20026;-71
2021/09/19 00:40:33;;;;;;;4.07;3.13;;;15.40;99.90;;;;;;2064133;28;20072;-71
2021/09/19 00:41:34;;;;;;;3.83;3.53;;;15.40;99.90;;;;;;2066850;28;20031;-71
2021/09/19 00:42:35;;;;;;;4.03;3.67;;;15.40;99.90;;;;;;2063499;28;20034;-71
2021/09/19 00:43:36;;;;;;;3.95;3.65;;;15.30;99.90;;;;;;2063241;28;20042;-71
2021/09/19 00:44:36;;;;;;;4.32;3.53;;;15.30;99.90;;;;;;2063141;28;20026;-71
2021/09/19 00:45:37;;;;;;;3.47;3.25;;;15.40;99.90;;;;;;2063767;28;20062;-71
2021/09/19 00:46:38;;;;;;;3.30;3.10;;;15.30;99.90;;;;;;2063841;28;20085;-71
2021/09/19 00:47:39;;;;;;;3.58;3.28;;;15.30;99.90;;;;;;2063204;28;20038;-71
2021/09/19 00:48:39;;;;;;;3.60;3.30;;;15.30;99.90;;;;;;2063070;28;20026;-71
2021/09/19 00:49:40;;;;;;;3.35;3.15;;;15.30;99.90;;;;;;2062750;28;20026;-71
2021/09/19 00:50:40;;;;;;;3.65;3.30;;;15.30;99.90;;;;;;2062600;28;20057;-72
2021/09/19 00:51:43;;;;;;;3.35;3.05;;;15.30;99.90;;;;;;2070887;28;20022;-71
2021/09/19 00:52:45;;;;;;;3.47;3.20;;;15.30;99.90;;;;;;2063714;28;20034;-71
2021/09/19 00:53:48;;;;;;;3.72;3.47;;;15.30;99.90;;;;;;2063464;28;20042;-71
2021/09/19 00:54:50;;;;;;;4.55;3.35;;;15.30;99.90;;;;;;2063478;28;20414;-71
2021/09/19 00:55:50;;;;;;;5.40;3.55;;;15.30;99.90;;;;;;2062909;28;20097;-71
2021/09/19 00:56:55;;;;;;;4.55;2.88;;;15.30;99.90;;;;;;2063378;28;20030;-71
2021/09/19 00:57:56;;;;;;;4.13;3.47;;;15.30;99.90;;;;;;2063206;28;20105;-71
2021/09/19 00:58:57;;;;;;;3.75;3.42;;;15.20;99.90;;;;;;2062818;28;20088;-71
2021/09/19 00:59:58;;;;;;;4.15;3.63;;;15.20;99.90;;;;;;2062739;28;20041;-71
2021/09/19 01:01:00;;;;;;;4.18;3.42;;;15.20;99.90;;;;;;2062933;28;20023;-71
2021/09/19 01:02:02;;;;;;;4.82;4.43;;;15.20;99.90;;;;;;2063172;28;20096;-71
2021/09/19 01:03:02;;;;;;;3.97;3.55;;;15.20;99.90;;;;;;2063475;28;20026;-71
2021/09/19 01:04:03;;;;;;;3.25;2.95;;;15.20;99.90;;;;;;2064053;28;20519;-71
2021/09/19 01:05:05;;;;;;;4.00;3.75;;;15.20;99.90;;;;;;2066185;28;20156;-71
2021/09/19 01:06:06;;;;;;;4.10;3.70;;;15.20;99.90;;;;;;2071261;28;20026;-71
2021/09/19 01:07:07;;;;;;;3.90;3.60;;;15.20;99.90;;;;;;2065671;28;20035;-71
2021/09/19 01:08:08;;;;;;;6.57;3.60;;;15.20;99.90;;;;;;2062638;28;20034;-71
2021/09/19 01:09:09;;;;;;;4.07;3.75;;;15.20;99.90;;;;;;2071283;28;20046;-71
2021/09/19 01:10:12;;;;;;;3.40;2.83;;;15.10;99.90;;;;;;2070073;28;20048;-71
2021/09/19 01:11:14;;;;;;;4.15;3.03;;;15.20;99.90;;;;;;2071164;28;20521;-71
2021/09/19 01:12:20;;;;;;;4.95;4.55;;;15.10;99.90;;;;;;2062831;28;20023;-71
2021/09/19 01:13:20;;;;;;;3.88;3.25;;;15.10;99.90;;;;;;2062772;28;20042;-72
2021/09/19 01:14:23;;;;;;;3.85;3.55;;;15.10;99.90;;;;;;2063331;28;20488;-72
2021/09/19 01:15:25;;;;;;;3.75;3.45;;;15.10;99.90;;;;;;2067283;28;20569;-71
2021/09/19 01:16:26;;;;;;;7.80;3.97;;;15.10;99.90;;;;;;2063808;28;20026;-71
2021/09/19 01:17:27;;;;;;;4.53;4.10;;;15.10;99.90;;;;;;2063510;28;20114;-71
2021/09/19 01:18:29;;;;;;;3.95;3.60;;;15.10;99.90;;;;;;2062485;28;20042;-71
2021/09/19 01:19:32;;;;;;;4.00;3.70;;;15.10;99.90;;;;;;2063307;28;20033;-71
2021/09/19 01:20:33;;;;;;;4.80;4.07;;;15.00;99.90;;;;;;2063594;28;20387;-72
2021/09/19 01:21:34;;;;;;;4.53;4.13;;;15.00;99.90;;;;;;2063631;28;20387;-71
2021/09/19 01:22:36;;;;;;;3.92;3.63;;;15.00;99.90;;;;;;2063279;28;20122;-71
2021/09/19 01:23:37;;;;;;;4.32;4.03;;;15.00;99.90;;;;;;2064427;28;20029;-71
2021/09/19 01:24:38;;;;;;;5.28;4.78;;;15.00;99.90;;;;;;2068161;28;20026;-71
2021/09/19 01:25:40;;;;;;;5.60;4.10;;;15.00;99.90;;;;;;2070200;28;20060;-71
2021/09/19 01:26:40;;;;;;;3.72;3.45;;;15.00;99.90;;;;;;2067124;28;20030;-71
2021/09/19 01:27:45;;;;;;;4.63;4.25;;;15.00;99.90;;;;;;2062725;28;20029;-71
2021/09/19 01:28:45;;;;;;;5.07;4.50;;;15.00;99.90;;;;;;2070106;28;20457;-71
2021/09/19 01:29:46;;;;;;;4.18;3.88;;;15.00;99.90;;;;;;2066146;28;20480;-71
2021/09/19 01:30:47;;;;;;;5.43;5.03;;;15.00;99.90;;;;;;2063185;28;20065;-72
2021/09/19 01:31:48;;;;;;;5.07;4.47;;;15.00;99.90;;;;;;2063488;28;20022;-71
2021/09/19 01:32:49;;;;;;;4.18;3.88;;;15.00;99.90;;;;;;2065489;28;20065;-71
2021/09/19 01:33:51;;;;;;;5.72;4.72;;;14.90;99.90;;;;;;2070709;28;20026;-71
2021/09/19 01:34:52;;;;;;;5.03;4.63;;;15.00;99.90;;;;;;2071130;28;20104;-71
2021/09/19 01:35:57;;;;;;;6.78;5.55;;;14.90;99.90;;;;;;2071256;28;20426;-71
2021/09/19 01:36:58;;;;;;;5.18;4.78;;;14.90;99.90;;;;;;2070436;28;20121;-71
2021/09/19 01:37:59;;;;;;;7.72;4.72;;;14.90;99.90;;;;;;2066877;28;20031;-71
2021/09/19 01:39:01;;;;;;;4.65;4.30;;;14.90;99.90;;;;;;2062555;28;20125;-71
2021/09/19 01:40:02;;;;;;;4.80;4.40;;;14.90;99.90;;;;;;2079164;28;20017;-71
2021/09/19 01:41:03;;;;;;;5.22;4.82;;;14.90;99.90;;;;;;2078533;28;20513;-71
2021/09/19 01:42:04;;;;;;;4.18;3.85;;;14.90;99.90;;;;;;2071259;28;20378;-71
2021/09/19 01:43:05;;;;;;;5.18;4.72;;;14.90;99.90;;;;;;2063153;28;20029;-71
2021/09/19 01:44:07;;;;;;;4.70;4.40;;;14.90;99.90;;;;;;2068345;28;20084;-71
2021/09/19 01:45:08;;;;;;;5.80;4.93;;;14.90;99.90;;;;;;2071331;28;20022;-71
2021/09/19 01:46:09;;;;;;;5.22;4.75;;;14.90;99.90;;;;;;2064510;28;20018;-71
2021/09/19 01:47:09;;;;;;;5.22;4.82;;;14.90;99.90;;;;;;2063067;28;20070;-72
2021/09/19 01:48:10;;;;;;;5.20;4.65;;;14.90;99.90;;;;;;2062798;28;20108;-71
2021/09/19 01:49:11;;;;;;;9.73;5.18;;;14.90;99.90;;;;;;2063043;28;20497;-71
2021/09/19 01:50:11;;;;;;;4.93;4.53;;;14.90;99.90;;;;;;2063066;28;20097;-72
2021/09/19 01:51:13;;;;;;;5.88;5.38;;;14.90;99.90;;;;;;2063384;28;20710;-72
2021/09/19 01:52:14;;;;;;;5.93;5.43;;;14.80;99.90;;;;;;2063398;28;20014;-71
2021/09/19 01:53:15;;;;;;;6.60;5.40;;;14.80;99.90;;;;;;2063238;28;20034;-71
2021/09/19 01:54:16;;;;;;;6.30;5.18;;;14.80;99.90;;;;;;2069116;28;20105;-71
2021/09/19 01:55:17;;;;;;;4.78;4.45;;;14.80;99.90;;;;;;2069124;28;20481;-71
2021/09/19 01:56:19;;;;;;;9.80;5.93;;;14.80;99.90;;;;;;2063210;28;20027;-71
2021/09/19 01:57:22;;;;;;;5.13;4.70;;;14.80;99.90;;;;;;2069029;28;20026;-71
2021/09/19 01:58:24;;;;;;;6.00;5.43;;;14.70;99.90;;;;;;2070323;28;20034;-71
2021/09/19 01:59:25;;;;;;;6.82;5.38;;;14.70;99.90;;;;;;2071467;28;20057;-71
2021/09/19 02:00:26;;;;;;;6.40;5.78;;;14.70;99.90;;;;;;2070198;28;20034;-71
2021/09/19 02:01:29;;;;;;;5.50;4.88;;;14.70;99.90;;;;;;2072261;28;20101;-71
2021/09/19 02:02:34;;;;;;;4.80;4.43;;;14.80;99.90;;;;;;2065030;28;20029;-71
2021/09/19 02:03:37;;;;;;;5.63;5.13;;;14.70;99.90;;;;;;2066790;28;20461;-71
2021/09/19 02:04:41;;;;;;;5.50;5.00;;;14.70;99.90;;;;;;2063816;28;20045;-71
2021/09/19 02:05:41;;;;;;;4.85;4.45;;;14.70;99.90;;;;;;2064584;28;20058;-71
2021/09/19 02:06:42;;;;;;;5.38;4.95;;;14.70;99.90;;;;;;2064248;28;20026;-71
2021/09/19 02:07:42;;;;;;;5.20;4.70;;;14.70;99.90;;;;;;2064653;28;20072;-71
2021/09/19 02:08:44;;;;;;;5.07;4.68;;;14.70;99.90;;;;;;2063688;28;20034;-71
2021/09/19 02:09:45;;;;;;;5.60;5.03;;;14.70;99.90;;;;;;2064457;28;20042;-71
2021/09/19 02:10:45;;;;;;;5.78;5.38;;;14.70;99.90;;;;;;2064338;28;20054;-72
2021/09/19 02:11:46;;;;;;;5.85;5.07;;;14.70;99.90;;;;;;2064695;28;20467;-71
2021/09/19 02:12:47;;;;;;;5.88;5.38;;;14.70;99.90;;;;;;2065354;28;20057;-71
2021/09/19 02:13:48;;;;;;;6.00;5.30;;;14.70;99.90;;;;;;2067183;28;20070;-71
2021/09/19 02:14:49;;;;;;;6.82;4.18;;;14.70;99.90;;;;;;2073933;28;20030;-71
2021/09/19 02:15:49;;;;;;;5.35;4.53;;;14.70;99.90;;;;;;2074132;28;20033;-71
2021/09/19 02:16:50;;;;;;;4.80;4.43;;;14.70;99.90;;;;;;2068165;28;20069;-71
2021/09/19 02:17:50;;;;;;;4.97;4.47;;;14.70;99.90;;;;;;2073336;28;20509;-71
2021/09/19 02:18:51;;;;;;;9.00;5.22;;;14.70;99.90;;;;;;2072723;28;20145;-71
2021/09/19 02:19:52;;;;;;;6.40;5.90;;;14.70;99.90;;;;;;2066001;28;20030;-71
2021/09/19 02:20:52;;;;;;;5.72;5.22;;;14.70;99.90;;;;;;2065742;28;20022;-71
2021/09/19 02:21:53;;;;;;;6.07;4.90;;;14.70;99.90;;;;;;2065895;28;20390;-72
2021/09/19 02:22:54;;;;;;;6.13;4.78;;;14.70;99.90;;;;;;2065879;28;20109;-71
2021/09/19 02:23:54;;;;;;;7.35;5.50;;;14.70;99.90;;;;;;2067989;28;20533;-71
2021/09/19 02:24:55;;;;;;;6.30;5.68;;;14.70;99.90;;;;;;2073834;28;20030;-71
2021/09/19 02:25:55;;;;;;;4.55;4.15;;;14.70;99.90;;;;;;2073366;28;20409;-71
2021/09/19 02:26:56;;;;;;;5.88;5.38;;;14.70;99.90;;;;;;2070860;28;20018;-71
2021/09/19 02:27:56;;;;;;;8.68;6.10;;;14.70;99.90;;;;;;2073885;28;20048;-71
2021/09/19 02:28:57;;;;;;;6.40;5.78;;;14.70;99.90;;;;;;2073011;28;20034;-71
2021/09/19 02:29:57;;;;;;;4.95;4.55;;;14.60;99.90;;;;;;2067504;28;20031;-71
2021/09/19 02:30:58;;;;;;;5.47;4.78;;;14.70;99.90;;;;;;2065529;28;20026;-71
2021/09/19 02:31:59;;;;;;;6.03;5.53;;;14.60;99.90;;;;;;2068688;28;20029;-71
2021/09/19 02:32:59;;;;;;;5.40;4.90;;;14.60;99.90;;;;;;2068969;28;20104;-71
2021/09/19 02:34:00;;;;;;;5.47;4.97;;;14.60;99.90;;;;;;2068626;28;20471;-71
2021/09/19 02:35:01;;;;;;;6.25;5.30;;;14.60;99.90;;;;;;2065899;28;20023;-71
2021/09/19 02:36:01;;;;;;;5.30;4.80;;;14.60;99.90;;;;;;2065737;28;20096;-71
2021/09/19 02:37:02;;;;;;;7.63;5.40;;;14.60;99.90;;;;;;2065665;28;20096;-71
2021/09/19 02:38:03;;;;;;;5.45;4.95;;;14.60;99.90;;;;;;2065709;28;20387;-71
2021/09/19 02:39:03;;;;;;;5.50;5.00;;;14.60;99.90;;;;;;2065276;28;20031;-71
2021/09/19 02:40:06;;;;;;;6.63;6.03;;;14.60;99.90;;;;;;2073241;28;20165;-71
2021/09/19 02:41:06;;;;;;;6.43;5.82;;;14.60;99.90;;;;;;2078507;28;20013;-71
2021/09/19 02:42:07;;;;;;;4.40;4.00;;;14.60;99.90;;;;;;2073739;28;20105;-72
2021/09/19 02:43:08;;;;;;;5.50;5.05;;;14.60;99.90;;;;;;2073915;28;20022;-71
2021/09/19 02:44:08;;;;;;;5.10;4.70;;;14.60;99.90;;;;;;2069707;28;20126;-71
2021/09/19 02:45:11;;;;;;;5.03;4.57;;;14.50;99.90;;;;;;2065674;28;20029;-72
2021/09/19 02:46:11;;;;;;;6.38;5.75;;;14.60;99.90;;;;;;2065597;28;20542;-71
2021/09/19 02:47:12;;;;;;;5.88;4.80;;;14.50;99.90;;;;;;2065520;28;20085;-71
2021/09/19 02:48:13;;;;;;;5.72;5.22;;;14.50;99.90;;;;;;2065073;28;20105;-71
2021/09/19 02:49:13;;;;;;;5.38;4.88;;;14.60;99.90;;;;;;2065760;28;20030;-71
2021/09/19 02:50:18;;;;;;;5.43;5.03;;;14.50;99.90;;;;;;2065554;28;20058;-72
2021/09/19 02:51:18;;;;;;;5.50;5.10;;;14.60;99.90;;;;;;2065882;28;20022;-71
2021/09/19 02:52:19;;;;;;;4.95;4.43;;;14.50;99.90;;;;;;2069073;28;20022;-71
2021/09/19 02:53:20;;;;;;;6.35;5.85;;;14.50;99.90;;;;;;2073980;28;20029;-71
2021/09/19 02:54:20;;;;;;;6.47;5.78;;;14.50;99.90;;;;;;2070333;28;20026;-72
2021/09/19 02:55:22;;;;;;;7.03;6.43;;;14.50;99.90;;;;;;2073856;28;20071;-71
2021/09/19 02:56:23;;;;;;;6.82;6.22;;;14.50;99.90;;;;;;2073787;28;20040;-72
2021/09/19 02:57:23;;;;;;;6.38;5.68;;;14.50;99.90;;;;;;2067934;28;20475;-72
2021/09/19 02:58:24;;;;;;;7.70;6.32;;;14.50;99.90;;;;;;2063973;28;20030;-71
2021/09/19 02:59:24;;;;;;;7.28;6.68;;;14.50;99.90;;;;;;2065594;28;20891;-71
2021/09/19 03:00:25;;;;;;;6.55;5.95;;;14.50;99.90;;;;;;2064933;28;20030;-72
2021/09/19 03:01:25;;;;;;;5.95;5.45;;;14.50;99.90;;;;;;2065058;28;20026;-71
2021/09/19 03:02:26;;;;;;;6.97;5.95;;;14.50;99.90;;;;;;2070935;28;20108;-71
2021/09/19 03:03:27;;;;;;;7.05;6.35;;;14.50;99.90;;;;;;2072842;28;20371;-71
2021/09/19 03:04:27;;;;;;;6.15;5.20;;;14.50;99.90;;;;;;2072479;28;20556;-71
2021/09/19 03:05:28;;;;;;;7.03;6.38;;;14.40;99.90;;;;;;2072005;28;20068;-71
2021/09/19 03:06:28;;;;;;;6.65;5.93;;;14.40;99.90;;;;;;2071631;28;20077;-71
2021/09/19 03:07:29;;;;;;;6.30;5.78;;;14.40;99.90;;;;;;2064809;28;20026;-71
2021/09/19 03:08:29;;;;;;;6.22;5.35;;;14.40;99.90;;;;;;2078996;28;20112;-71
2021/09/19 03:09:30;;;;;;;5.15;4.78;;;14.40;99.90;;;;;;2080170;28;20037;-71
2021/09/19 03:10:31;;;;;;;5.65;5.25;;;14.50;99.90;;;;;;2065879;28;20766;-71
2021/09/19 03:11:32;;;;;;;6.72;6.18;;;14.40;99.90;;;;;;2068179;28;20029;-71
2021/09/19 03:12:33;;;;;;;6.13;5.63;;;14.40;99.90;;;;;;2063620;28;20026;-71
2021/09/19 03:13:34;;;;;;;5.93;5.45;;;14.40;99.90;;;;;;2063612;28;20054;-71
2021/09/19 03:14:34;;;;;;;5.82;5.32;;;14.40;99.90;;;;;;2070227;28;20029;-71
2021/09/19 03:15:35;;;;;;;6.60;6.05;;;14.40;99.90;;;;;;2064056;28;20105;-72
2021/09/19 03:16:35;;;;;;;7.22;6.63;;;14.40;99.90;;;;;;2067466;28;20022;-72
2021/09/19 03:17:36;;;;;;;7.13;6.53;;;14.40;99.90;;;;;;2068797;28;20057;-71
2021/09/19 03:18:37;;;;;;;6.18;5.68;;;14.40;99.90;;;;;;2064460;28;20026;-71
2021/09/19 03:19:37;;;;;;;6.35;5.80;;;14.40;99.90;;;;;;2063379;28;20502;-71
2021/09/19 03:20:38;;;;;;;6.45;5.22;;;14.40;99.90;;;;;;2064475;28;20049;-71
2021/09/19 03:21:39;;;;;;;5.80;5.30;;;14.40;99.90;;;;;;2064065;28;20379;-71
2021/09/19 03:22:39;;;;;;;5.53;5.03;;;14.40;99.90;;;;;;2064520;28;20034;-71
2021/09/19 03:23:40;;;;;;;5.75;5.28;;;14.40;99.90;;;;;;2063425;28;20116;-71
2021/09/19 03:24:41;;;;;;;5.57;5.07;;;14.40;99.90;;;;;;2070254;28;20034;-72
2021/09/19 03:25:42;;;;;;;6.45;5.80;;;14.40;99.90;;;;;;2072086;28;20022;-72
2021/09/19 03:26:42;;;;;;;7.18;6.45;;;14.40;99.90;;;;;;2069503;28;20033;-72
2021/09/19 03:27:43;;;;;;;7.10;6.50;;;14.40;99.90;;;;;;2072034;28;20551;-72
2021/09/19 03:28:44;;;;;;;7.00;6.40;;;14.40;99.90;;;;;;2071752;28;20026;-72
2021/09/19 03:29:44;;;;;;;6.93;6.32;;;14.40;99.90;;;;;;2067125;28;20117;-72
2021/09/19 03:30:45;;;;;;;7.05;6.45;;;14.30;99.90;;;;;;2065686;28;20030;-72
2021/09/19 03:31:46;;;;;;;7.60;6.80;;;14.40;99.90;;;;;;2064441;28;20076;-72
2021/09/19 03:32:46;;;;;;;7.57;6.97;;;14.40;99.90;;;;;;2068313;28;20971;-72
2021/09/19 03:33:47;;;;;;;7.43;6.72;;;14.30;99.90;;;;;;2063592;28;20023;-71
2021/09/19 03:34:47;;;;;;;7.47;6.72;;;14.30;99.90;;;;;;2071208;28;20045;-71
2021/09/19 03:35:48;;;;;;;7.85;7.25;;;14.30;99.90;;;;;;2071073;28;20037;-71
2021/09/19 03:36:49;;;;;;;8.13;7.35;;;14.30;99.90;;;;;;2064461;28;20795;-71
2021/09/19 03:37:50;;;;;;;6.38;5.85;;;14.30;99.90;;;;;;2064251;28;20030;-71
2021/09/19 03:38:51;;;;;;;6.30;5.70;;;14.30;99.90;;;;;;2063380;28;20058;-71
2021/09/19 03:39:51;;;;;;;6.93;6.32;;;14.30;99.90;;;;;;2063751;28;20034;-71
2021/09/19 03:40:52;;;;;;;7.90;7.07;;;14.20;99.90;;;;;;2067451;28;20533;-72
2021/09/19 03:41:53;;;;;;;9.55;7.93;;;14.30;99.90;;;;;;2072200;28;20030;-72
2021/09/19 03:42:54;;;;;;;7.18;6.47;;;14.20;99.90;;;;;;2072306;28;20033;-72
2021/09/19 03:43:56;;;;;;;6.60;6.10;;;14.20;99.90;;;;;;2071828;28;20065;-72
2021/09/19 03:44:57;;;;;;;7.47;6.45;;;14.20;99.90;;;;;;2069586;28;20020;-71
2021/09/19 03:45:57;;;;;;;7.20;6.60;;;14.20;99.90;;;;;;2067203;28;20026;-71
2021/09/19 03:46:58;;;;;;;6.80;6.20;;;14.20;99.90;;;;;;2063714;28;20034;-71
2021/09/19 03:48:03;;;;;;;6.15;5.70;;;14.20;99.90;;;;;;2063946;28;20038;-71
2021/09/19 03:49:04;;;;;;;6.93;6.25;;;14.30;99.90;;;;;;2063574;28;20030;-71
2021/09/19 03:50:06;;;;;;;6.88;6.35;;;14.20;99.90;;;;;;2063744;28;20022;-71
2021/09/19 03:51:07;;;;;;;7.07;6.38;;;14.20;99.90;;;;;;2063943;28;20418;-71
2021/09/19 03:52:07;;;;;;;6.47;5.55;;;14.20;99.90;;;;;;2063996;28;20015;-71
2021/09/19 03:53:08;;;;;;;6.57;5.97;;;14.20;99.90;;;;;;2063551;28;20113;-71
2021/09/19 03:54:08;;;;;;;7.10;6.45;;;14.20;99.90;;;;;;2063330;28;20053;-71
2021/09/19 03:55:10;;;;;;;8.18;6.00;;;14.20;99.90;;;;;;2071754;28;20030;-72
2021/09/19 03:56:10;;;;;;;7.95;7.15;;;14.20;99.90;;;;;;2072277;28;20025;-72
2021/09/19 03:57:11;;;;;;;6.88;6.38;;;14.20;99.90;;;;;;2068671;28;20022;-72
2021/09/19 03:58:11;;;;;;;7.20;6.50;;;14.20;99.90;;;;;;2063483;28;20025;-72
2021/09/19 03:59:12;;;;;;;7.85;7.13;;;14.20;99.90;;;;;;2063530;28;20026;-72
2021/09/19 04:00:14;;;;;;;7.38;6.78;;;14.20;99.90;;;;;;2063886;28;20109;-72
2021/09/19 04:01:15;;;;;;;7.10;6.43;;;14.10;99.90;;;;;;2063833;28;20084;-71
2021/09/19 04:02:15;;;;;;;7.63;6.93;;;14.20;99.90;;;;;;2068978;28;20034;-71
2021/09/19 04:03:16;;;;;;;6.60;6.03;;;14.10;99.90;;;;;;2072051;28;20466;-72
2021/09/19 04:04:17;;;;;;;7.50;6.90;;;14.20;99.90;;;;;;2071255;28;20105;-72
2021/09/19 04:05:17;;;;;;;7.50;6.80;;;14.20;99.90;;;;;;2071550;28;20033;-71
2021/09/19 04:06:18;;;;;;;7.90;7.10;;;14.10;99.90;;;;;;2072247;28;20028;-71
2021/09/19 04:07:18;;;;;;;7.45;6.63;;;14.10;99.90;;;;;;2065294;28;20026;-71
2021/09/19 04:08:19;;;;;;;7.63;7.00;;;14.10;99.90;;;;;;2063636;28;20029;-71
2021/09/19 04:09:19;;;;;;;7.57;6.57;;;14.10;99.90;;;;;;2063756;28;20081;-71
2021/09/19 04:10:20;;;;;;;6.20;5.80;;;14.10;99.90;;;;;;2063648;28;20034;-71
2021/09/19 04:11:20;;;;;;;8.10;7.15;;;14.10;99.90;;;;;;2063831;28;20025;-71
2021/09/19 04:12:21;;;;;;;6.40;5.90;;;14.10;99.90;;;;;;2063897;28;20054;-71
2021/09/19 04:13:22;;;;;;;7.63;6.63;;;14.10;99.90;;;;;;2063980;28;20057;-71
2021/09/19 04:14:23;;;;;;;6.68;6.18;;;14.10;99.90;;;;;;2065877;28;20534;-71
2021/09/19 04:15:23;;;;;;;6.30;5.80;;;14.10;99.90;;;;;;2071266;28;20029;-71
2021/09/19 04:16:24;;;;;;;6.75;6.15;;;14.10;99.90;;;;;;2070271;28;20093;-71
2021/09/19 04:17:25;;;;;;;6.68;6.13;;;14.10;99.90;;;;;;2063707;28;20033;-71
2021/09/19 04:18:26;;;;;;;8.15;7.28;;;14.10;99.90;;;;;;2063154;28;20038;-71
2021/09/19 04:19:27;;;;;;;6.28;5.78;;;14.10;99.90;;;;;;2063937;28;20117;-72
2021/09/19 04:20:27;;;;;;;7.30;6.68;;;14.10;99.90;;;;;;2063734;28;20085;-71
2021/09/19 04:21:30;;;;;;;7.75;7.03;;;14.10;99.90;;;;;;2066065;28;20030;-71
2021/09/19 04:22:31;;;;;;;7.70;7.03;;;14.10;99.90;;;;;;2071501;28;20060;-71
2021/09/19 04:23:31;;;;;;;6.95;6.38;;;14.10;99.90;;;;;;2071913;28;20034;-71
2021/09/19 04:24:32;;;;;;;6.72;6.03;;;14.10;99.90;;;;;;2068207;28;20061;-71
2021/09/19 04:25:32;;;;;;;8.43;7.40;;;14.00;99.90;;;;;;2063560;28;20026;-71
2021/09/19 04:26:33;;;;;;;7.15;6.45;;;14.10;99.90;;;;;;2065722;28;20045;-71
2021/09/19 04:27:33;;;;;;;7.97;6.90;;;14.10;99.90;;;;;;2071517;28;20121;-71
2021/09/19 04:28:34;;;;;;;7.50;6.80;;;14.10;99.90;;;;;;2071382;28;20030;-71
2021/09/19 04:29:35;;;;;;;7.95;7.20;;;14.00;99.90;;;;;;2068510;28;20065;-71
2021/09/19 04:30:35;;;;;;;7.20;6.50;;;14.00;99.90;;;;;;2063602;28;20034;-71
2021/09/19 04:31:36;;;;;;;7.35;6.82;;;14.00;99.90;;;;;;2063607;28;20023;-71
2021/09/19 04:32:37;;;;;;;7.00;6.30;;;14.00;99.90;;;;;;2063388;28;20109;-71
2021/09/19 04:33:38;;;;;;;7.60;6.90;;;14.00;99.90;;;;;;2063953;28;20022;-71
2021/09/19 04:34:39;;;;;;;7.65;6.85;;;14.00;99.90;;;;;;2066955;28;20113;-71
2021/09/19 04:35:40;;;;;;;8.27;7.57;;;14.00;99.90;;;;;;2071520;28;20037;-72
2021/09/19 04:36:40;;;;;;;7.65;6.97;;;14.00;99.90;;;;;;2070531;28;20030;-71
2021/09/19 04:37:41;;;;;;;7.50;6.90;;;14.00;99.90;;;;;;2068628;28;20467;-71
2021/09/19 04:38:42;;;;;;;7.70;7.05;;;13.90;99.90;;;;;;2062855;28;20069;-71
2021/09/19 04:39:43;;;;;;;7.32;6.65;;;13.90;99.90;;;;;;2063629;28;20755;-71
2021/09/19 04:40:44;;;;;;;8.32;7.40;;;14.00;99.90;;;;;;2065147;28;20049;-71
2021/09/19 04:41:45;;;;;;;8.63;7.72;;;14.00;99.90;;;;;;2071910;28;20053;-71
2021/09/19 04:42:45;;;;;;;8.55;7.75;;;14.00;99.90;;;;;;2071848;28;20041;-72
2021/09/19 04:43:46;;;;;;;9.68;7.78;;;13.90;99.90;;;;;;2071903;28;20065;-72
2021/09/19 04:44:46;;;;;;;9.15;8.25;;;13.90;99.90;;;;;;2071426;28;20659;-72
2021/09/19 04:45:47;;;;;;;8.02;7.30;;;13.90;99.90;;;;;;2067754;28;20023;-72
2021/09/19 04:46:48;;;;;;;8.00;7.30;;;13.90;99.90;;;;;;2063671;28;20065;-71
2021/09/19 04:47:48;;;;;;;8.60;7.90;;;13.90;99.90;;;;;;2063747;28;20027;-72
2021/09/19 04:48:53;;;;;;;8.13;7.32;;;13.90;99.90;;;;;;2063018;28;20030;-72
2021/09/19 04:49:54;;;;;;;9.27;8.48;;;13.90;99.90;;;;;;2063516;28;20077;-72
2021/09/19 04:50:55;;;;;;;8.95;8.20;;;13.90;99.90;;;;;;2070920;28;20052;-71
2021/09/19 04:51:55;;;;;;;9.40;8.55;;;13.80;99.90;;;;;;2070834;28;20521;-71
2021/09/19 04:52:56;;;;;;;9.27;8.32;;;13.80;99.90;;;;;;2063562;28;20026;-71
2021/09/19 04:53:56;;;;;;;8.98;8.07;;;13.80;99.90;;;;;;2063628;28;20027;-72
2021/09/19 04:54:57;;;;;;;9.65;8.68;;;13.80;99.90;;;;;;2068605;28;20092;-71
2021/09/19 04:55:57;;;;;;;9.13;8.32;;;13.80;99.90;;;;;;2071548;28;20108;-71
2021/09/19 04:56:59;;;;;;;10.40;9.43;;;13.80;99.90;;;;;;2069230;28;20033;-71
2021/09/19 04:57:59;;;;;;;9.07;8.27;;;13.80;99.90;;;;;;2063585;28;20026;-71
2021/09/19 04:59:00;;;;;;;9.90;8.45;;;13.80;99.90;;;;;;2062882;28;20101;-72
2021/09/19 05:00:01;;;;;;;9.10;8.20;;;13.80;99.90;;;;;;2063418;28;20041;-72
2021/09/19 05:01:02;;;;;;;9.10;8.30;;;13.80;99.90;;;;;;2063376;28;20109;-72
2021/09/19 05:02:03;;;;;;;10.07;9.05;;;13.80;99.90;;;;;;2063229;28;20045;-72
2021/09/19 05:03:04;;;;;;;9.52;8.68;;;13.80;99.90;;;;;;2067981;28;20057;-71
2021/09/19 05:04:04;;;;;;;10.02;9.13;;;13.80;99.90;;;;;;2064329;28;20027;-72
2021/09/19 05:05:06;;;;;;;9.68;8.77;;;13.80;99.90;;;;;;2069104;28;20029;-72
2021/09/19 05:06:06;;;;;;;9.20;8.40;;;13.80;99.90;;;;;;2071530;28;20084;-72
2021/09/19 05:07:07;;;;;;;10.48;9.48;;;13.80;99.90;;;;;;2065426;28;20027;-72
2021/09/19 05:08:08;;;;;;;10.50;9.40;;;13.80;99.90;;;;;;2063032;28;20069;-72
2021/09/19 05:09:09;;;;;;;9.93;9.13;;;13.80;99.90;;;;;;2063255;28;20026;-72
2021/09/19 05:10:10;;;;;;;9.50;8.70;;;13.80;99.90;;;;;;2063450;28;20018;-72
2021/09/19 05:11:10;;;;;;;8.70;7.85;;;13.80;99.90;;;;;;2063293;28;20026;-72
2021/09/19 05:12:11;;;;;;;10.52;9.43;;;13.80;99.90;;;;;;2063030;28;20034;-72
2021/09/19 05:13:11;;;;;;;9.95;9.05;;;13.80;99.90;;;;;;2063591;28;20513;-72
2021/09/19 05:14:12;;;;;;;9.30;8.50;;;13.80;99.90;;;;;;2063425;28;20101;-72
2021/09/19 05:15:13;;;;;;;10.10;9.10;;;13.80;99.90;;;;;;2069296;28;20057;-71
2021/09/19 05:16:14;;;;;;;7.93;7.32;;;13.80;99.90;;;;;;2069896;28;20022;-72
2021/09/19 05:17:15;;;;;;;9.35;8.43;;;13.80;99.90;;;;;;2062763;28;20022;-72